createdAt,value
2023-02-08T00:00:17.797Z,1033.86
2023-02-08T00:01:17.820Z,1033.92
2023-02-08T00:02:17.847Z,1033.86
2023-02-08T00:03:17.836Z,1033.87
2023-02-08T00:04:17.856Z,1033.87
2023-02-08T00:05:17.865Z,1033.85
2023-02-08T00:06:17.902Z,1033.87
2023-02-08T00:07:17.893Z,1033.82
2023-02-08T00:08:17.913Z,1033.84
2023-02-08T00:09:17.921Z,1033.85
2023-02-08T00:10:17.940Z,1033.83
2023-02-08T00:11:17.950Z,1033.82
2023-02-08T00:12:17.963Z,1033.82
2023-02-08T00:13:17.986Z,1033.82
2023-02-08T00:14:17.992Z,1033.84
2023-02-08T00:15:18.005Z,1033.86
2023-02-08T00:16:18.165Z,1033.85
2023-02-08T00:17:18.035Z,1033.86
2023-02-08T00:18:18.051Z,1033.88
2023-02-08T00:19:18.063Z,1033.87
2023-02-08T00:20:18.085Z,1033.90
2023-02-08T00:21:18.100Z,1033.88
2023-02-08T00:22:18.104Z,1033.92
2023-02-08T00:23:18.133Z,1033.88
2023-02-08T00:24:18.142Z,1033.89
2023-02-08T00:25:18.153Z,1033.89
2023-02-08T00:26:18.160Z,1033.85
2023-02-08T00:27:18.172Z,1033.83
2023-02-08T00:28:18.207Z,1033.83
2023-02-08T00:29:18.197Z,1033.79
2023-02-08T00:30:18.212Z,1033.76
2023-02-08T00:31:18.377Z,1033.74
2023-02-08T00:32:18.242Z,1033.74
2023-02-08T00:33:18.251Z,1033.70
2023-02-08T00:34:18.270Z,1033.71
2023-02-08T00:35:18.281Z,1033.69
2023-02-08T00:36:18.294Z,1033.69
2023-02-08T00:37:18.311Z,1033.69
2023-02-08T00:38:18.332Z,1033.66
2023-02-08T00:39:18.361Z,1033.67
2023-02-08T00:40:18.343Z,1033.66
2023-02-08T00:41:18.354Z,1033.61
2023-02-08T00:42:18.376Z,1033.60
2023-02-08T00:43:18.400Z,1033.62
2023-02-08T00:44:18.402Z,1033.58
2023-02-08T00:45:18.422Z,1033.54
2023-02-08T00:46:18.469Z,1033.54
2023-02-08T00:47:18.440Z,1033.55
2023-02-08T00:48:18.452Z,1033.56
2023-02-08T00:49:18.474Z,1033.53
2023-02-08T00:50:18.490Z,1033.55
2023-02-08T00:51:18.492Z,1033.54
2023-02-08T00:52:18.509Z,1033.57
2023-02-08T00:53:18.530Z,1033.53
2023-02-08T00:54:18.534Z,1033.54
2023-02-08T00:55:18.547Z,1033.53
2023-02-08T00:56:18.564Z,1033.53
2023-02-08T00:57:18.575Z,1033.50
2023-02-08T00:58:18.588Z,1033.53
2023-02-08T00:59:18.608Z,1033.52
2023-02-08T01:00:18.614Z,1033.51
2023-02-08T01:01:18.781Z,1033.51
2023-02-08T01:02:18.688Z,1033.52
2023-02-08T01:03:18.679Z,1033.54
2023-02-08T01:04:18.700Z,1033.58
2023-02-08T01:05:18.683Z,1033.55
2023-02-08T01:06:18.695Z,1033.53
2023-02-08T01:07:18.719Z,1033.52
2023-02-08T01:08:18.729Z,1033.51
2023-02-08T01:09:18.757Z,1033.52
2023-02-08T01:10:18.751Z,1033.53
2023-02-08T01:11:18.770Z,1033.53
2023-02-08T01:12:18.776Z,1033.51
2023-02-08T01:13:18.789Z,1033.51
2023-02-08T01:14:18.803Z,1033.48
2023-02-08T01:15:18.819Z,1033.48
2023-02-08T01:16:18.894Z,1033.48
2023-02-08T01:17:18.845Z,1033.48
2023-02-08T01:18:18.856Z,1033.45
2023-02-08T01:19:18.869Z,1033.46
2023-02-08T01:20:18.881Z,1033.47
2023-02-08T01:21:18.910Z,1033.44
2023-02-08T01:22:18.922Z,1033.43
2023-02-08T01:23:18.916Z,1033.43
2023-02-08T01:24:18.935Z,1033.44
2023-02-08T01:25:18.952Z,1033.45
2023-02-08T01:26:18.977Z,1033.41
2023-02-08T01:27:18.977Z,1033.42
2023-02-08T01:28:19.020Z,1033.38
2023-02-08T01:29:19.002Z,1033.38
2023-02-08T01:30:19.136Z,1033.35
2023-02-08T01:31:19.101Z,1033.31
2023-02-08T01:32:19.044Z,1033.35
2023-02-08T01:33:19.057Z,1033.39
2023-02-08T01:34:19.073Z,1033.36
2023-02-08T01:35:19.081Z,1033.40
2023-02-08T01:36:19.097Z,1033.36
2023-02-08T01:37:19.112Z,1033.37
2023-02-08T01:38:19.122Z,1033.31
2023-02-08T01:39:19.145Z,1033.30
2023-02-08T01:40:19.150Z,1033.33
2023-02-08T01:41:19.161Z,1033.29
2023-02-08T01:42:19.176Z,1033.31
2023-02-08T01:43:19.194Z,1033.29
2023-02-08T01:44:19.202Z,1033.28
2023-02-08T01:45:19.225Z,1033.29
2023-02-08T01:46:19.231Z,1033.27
2023-02-08T01:47:19.256Z,1033.32
2023-02-08T01:48:19.254Z,1033.32
2023-02-08T01:49:19.270Z,1033.33
2023-02-08T01:50:19.290Z,1033.34
2023-02-08T01:51:19.294Z,1033.34
2023-02-08T01:52:19.314Z,1033.32
2023-02-08T01:53:19.336Z,1033.29
2023-02-08T01:54:19.337Z,1033.32
2023-02-08T01:55:19.348Z,1033.28
2023-02-08T01:56:19.361Z,1033.30
2023-02-08T01:57:19.393Z,1033.33
2023-02-08T01:58:19.403Z,1033.31
2023-02-08T01:59:19.404Z,1033.33
2023-02-08T02:00:19.418Z,1033.33
2023-02-08T02:01:19.490Z,1033.34
2023-02-08T02:02:19.446Z,1033.31
2023-02-08T02:03:19.460Z,1033.30
2023-02-08T02:04:19.506Z,1033.33
2023-02-08T02:05:19.479Z,1033.32
2023-02-08T02:06:19.493Z,1033.32
2023-02-08T02:07:19.531Z,1033.35
2023-02-08T02:08:19.520Z,1033.30
2023-02-08T02:09:19.541Z,1033.31
2023-02-08T02:10:19.546Z,1033.31
2023-02-08T02:11:19.557Z,1033.28
2023-02-08T02:12:19.571Z,1033.28
2023-02-08T02:13:19.585Z,1033.27
2023-02-08T02:14:19.603Z,1033.29
2023-02-08T02:15:19.610Z,1033.30
2023-02-08T02:16:19.643Z,1033.31
2023-02-08T02:17:19.638Z,1033.29
2023-02-08T02:18:19.651Z,1033.29
2023-02-08T02:19:19.665Z,1033.33
2023-02-08T02:20:19.679Z,1033.29
2023-02-08T02:21:19.694Z,1033.28
2023-02-08T02:22:19.744Z,1033.29
2023-02-08T02:23:19.716Z,1033.29
2023-02-08T02:24:19.729Z,1033.23
2023-02-08T02:25:19.744Z,1033.25
2023-02-08T02:26:19.759Z,1033.29
2023-02-08T02:27:19.770Z,1033.31
2023-02-08T02:28:19.824Z,1033.35
2023-02-08T02:29:19.800Z,1033.30
2023-02-08T02:30:19.819Z,1033.30
2023-02-08T02:31:19.860Z,1033.30
2023-02-08T02:32:19.846Z,1033.27
2023-02-08T02:33:19.856Z,1033.31
2023-02-08T02:34:19.867Z,1033.29
2023-02-08T02:35:19.879Z,1033.29
2023-02-08T02:36:19.889Z,1033.32
2023-02-08T02:37:19.902Z,1033.29
2023-02-08T02:38:19.937Z,1033.31
2023-02-08T02:39:19.946Z,1033.29
2023-02-08T02:40:19.948Z,1033.26
2023-02-08T02:41:19.958Z,1033.24
2023-02-08T02:42:19.985Z,1033.25
2023-02-08T02:43:19.985Z,1033.20
2023-02-08T02:44:19.994Z,1033.21
2023-02-08T02:45:20.008Z,1033.20
2023-02-08T02:46:20.021Z,1033.20
2023-02-08T02:47:20.034Z,1033.18
2023-02-08T02:48:20.047Z,1033.20
2023-02-08T02:49:20.061Z,1033.17
2023-02-08T02:50:20.071Z,1033.17
2023-02-08T02:51:20.096Z,1033.15
2023-02-08T02:52:20.100Z,1033.18
2023-02-08T02:53:20.116Z,1033.17
2023-02-08T02:54:20.128Z,1033.18
2023-02-08T02:55:20.138Z,1033.21
2023-02-08T02:56:20.166Z,1033.19
2023-02-08T02:57:20.163Z,1033.16
2023-02-08T02:58:20.185Z,1033.19
2023-02-08T02:59:20.200Z,1033.21
2023-02-08T03:00:20.217Z,1033.18
2023-02-08T03:01:20.252Z,1033.22
2023-02-08T03:02:20.233Z,1033.22
2023-02-08T03:03:20.249Z,1033.22
2023-02-08T03:04:20.289Z,1033.21
2023-02-08T03:05:20.275Z,1033.16
2023-02-08T03:06:20.285Z,1033.21
2023-02-08T03:07:20.307Z,1033.20
2023-02-08T03:08:20.319Z,1033.23
2023-02-08T03:09:20.324Z,1033.19
2023-02-08T03:10:20.339Z,1033.17
2023-02-08T03:11:20.367Z,1033.13
2023-02-08T03:12:20.367Z,1033.13
2023-02-08T03:13:20.379Z,1033.13
2023-02-08T03:14:20.416Z,1033.14
2023-02-08T03:15:20.401Z,1033.18
2023-02-08T03:16:20.568Z,1033.15
2023-02-08T03:17:20.432Z,1033.20
2023-02-08T03:18:20.458Z,1033.15
2023-02-08T03:19:20.457Z,1033.14
2023-02-08T03:20:20.473Z,1033.15
2023-02-08T03:21:20.495Z,1033.18
2023-02-08T03:22:20.498Z,1033.18
2023-02-08T03:23:20.515Z,1033.16
2023-02-08T03:24:20.523Z,1033.14
2023-02-08T03:25:20.536Z,1033.12
2023-02-08T03:26:20.554Z,1033.15
2023-02-08T03:27:20.571Z,1033.18
2023-02-08T03:28:20.637Z,1033.19
2023-02-08T03:29:20.593Z,1033.18
2023-02-08T03:30:20.605Z,1033.16
2023-02-08T03:31:20.695Z,1033.19
2023-02-08T03:32:20.635Z,1033.20
2023-02-08T03:33:20.649Z,1033.21
2023-02-08T03:34:20.654Z,1033.19
2023-02-08T03:35:20.666Z,1033.16
2023-02-08T03:36:20.679Z,1033.20
2023-02-08T03:37:20.700Z,1033.18
2023-02-08T03:38:20.706Z,1033.19
2023-02-08T03:39:20.720Z,1033.17
2023-02-08T03:40:20.732Z,1033.19
2023-02-08T03:41:20.752Z,1033.17
2023-02-08T03:42:20.762Z,1033.18
2023-02-08T03:43:20.771Z,1033.15
2023-02-08T03:44:20.788Z,1033.15
2023-02-08T03:45:20.806Z,1033.17
2023-02-08T03:46:20.843Z,1033.18
2023-02-08T03:47:20.824Z,1033.13
2023-02-08T03:48:20.835Z,1033.14
2023-02-08T03:49:20.851Z,1033.13
2023-02-08T03:50:20.865Z,1033.13
2023-02-08T03:51:20.879Z,1033.14
2023-02-08T03:52:20.889Z,1033.09
2023-02-08T03:53:20.917Z,1033.12
2023-02-08T03:54:20.921Z,1033.12
2023-02-08T03:55:20.929Z,1033.13
2023-02-08T03:56:20.943Z,1033.13
2023-02-08T03:57:20.954Z,1033.13
2023-02-08T03:58:20.965Z,1033.16
2023-02-08T03:59:20.982Z,1033.15
2023-02-08T04:00:20.992Z,1033.16
2023-02-08T04:01:21.020Z,1033.17
2023-02-08T04:02:21.041Z,1033.19
2023-02-08T04:03:21.033Z,1033.22
2023-02-08T04:04:21.041Z,1033.21
2023-02-08T04:05:21.055Z,1033.22
2023-02-08T04:06:21.071Z,1033.24
2023-02-08T04:07:21.079Z,1033.20
2023-02-08T04:08:21.092Z,1033.17
2023-02-08T04:09:21.105Z,1033.19
2023-02-08T04:10:21.121Z,1033.15
2023-02-08T04:11:21.131Z,1033.19
2023-02-08T04:12:21.147Z,1033.16
2023-02-08T04:13:21.158Z,1033.14
2023-02-08T04:14:21.172Z,1033.12
2023-02-08T04:15:21.183Z,1033.11
2023-02-08T04:16:21.202Z,1033.16
2023-02-08T04:17:21.209Z,1033.14
2023-02-08T04:18:21.216Z,1033.13
2023-02-08T04:19:21.232Z,1033.12
2023-02-08T04:20:21.256Z,1033.16
2023-02-08T04:21:21.261Z,1033.14
2023-02-08T04:22:21.274Z,1033.16
2023-02-08T04:23:21.300Z,1033.17
2023-02-08T04:24:21.340Z,1033.17
2023-02-08T04:25:21.312Z,1033.15
2023-02-08T04:26:21.344Z,1033.13
2023-02-08T04:27:21.342Z,1033.17
2023-02-08T04:28:21.395Z,1033.18
2023-02-08T04:29:21.363Z,1033.18
2023-02-08T04:30:21.379Z,1033.27
2023-02-08T04:31:21.628Z,1033.22
2023-02-08T04:32:21.415Z,1033.25
2023-02-08T04:33:21.425Z,1033.23
2023-02-08T04:34:21.434Z,1033.23
2023-02-08T04:35:21.443Z,1033.23
2023-02-08T04:36:21.457Z,1033.20
2023-02-08T04:37:21.470Z,1033.26
2023-02-08T04:38:21.497Z,1033.20
2023-02-08T04:39:21.496Z,1033.22
2023-02-08T04:40:21.509Z,1033.21
2023-02-08T04:41:21.526Z,1033.23
2023-02-08T04:42:21.541Z,1033.24
2023-02-08T04:43:21.550Z,1033.20
2023-02-08T04:44:21.588Z,1033.22
2023-02-08T04:45:21.572Z,1033.18
2023-02-08T04:46:21.639Z,1033.19
2023-02-08T04:47:21.604Z,1033.21
2023-02-08T04:48:21.623Z,1033.20
2023-02-08T04:49:21.627Z,1033.21
2023-02-08T04:50:21.640Z,1033.22
2023-02-08T04:51:21.653Z,1033.25
2023-02-08T04:52:21.668Z,1033.27
2023-02-08T04:53:21.680Z,1033.29
2023-02-08T04:54:21.697Z,1033.27
2023-02-08T04:55:21.712Z,1033.26
2023-02-08T04:56:21.717Z,1033.24
2023-02-08T04:57:21.731Z,1033.27
2023-02-08T04:58:21.745Z,1033.27
2023-02-08T04:59:21.757Z,1033.26
2023-02-08T05:00:21.769Z,1033.24
2023-02-08T05:01:21.808Z,1033.22
2023-02-08T05:02:21.794Z,1033.21
2023-02-08T05:03:21.805Z,1033.24
2023-02-08T05:04:21.816Z,1033.25
2023-02-08T05:05:21.895Z,1033.23
2023-02-08T05:06:21.843Z,1033.22
2023-02-08T05:07:21.861Z,1033.26
2023-02-08T05:08:21.867Z,1033.24
2023-02-08T05:09:21.894Z,1033.23
2023-02-08T05:10:21.910Z,1033.21
2023-02-08T05:11:21.910Z,1033.21
2023-02-08T05:12:21.917Z,1033.22
2023-02-08T05:13:21.946Z,1033.21
2023-02-08T05:14:21.943Z,1033.20
2023-02-08T05:15:21.985Z,1033.22
2023-02-08T05:16:22.037Z,1033.24
2023-02-08T05:17:21.984Z,1033.25
2023-02-08T05:18:22.006Z,1033.23
2023-02-08T05:19:22.011Z,1033.26
2023-02-08T05:20:22.025Z,1033.23
2023-02-08T05:21:22.084Z,1033.23
2023-02-08T05:22:22.041Z,1033.28
2023-02-08T05:23:22.065Z,1033.27
2023-02-08T05:24:22.077Z,1033.28
2023-02-08T05:25:22.084Z,1033.26
2023-02-08T05:26:22.099Z,1033.29
2023-02-08T05:27:22.112Z,1033.29
2023-02-08T05:28:22.196Z,1033.30
2023-02-08T05:29:22.137Z,1033.28
2023-02-08T05:30:22.153Z,1033.28
2023-02-08T05:31:22.285Z,1033.28
2023-02-08T05:32:22.173Z,1033.23
2023-02-08T05:33:22.193Z,1033.27
2023-02-08T05:34:22.197Z,1033.24
2023-02-08T05:35:22.212Z,1033.23
2023-02-08T05:36:22.222Z,1033.25
2023-02-08T05:37:22.241Z,1033.23
2023-02-08T05:38:22.247Z,1033.24
2023-02-08T05:39:22.260Z,1033.26
2023-02-08T05:40:22.276Z,1033.21
2023-02-08T05:41:22.299Z,1033.25
2023-02-08T05:42:22.303Z,1033.21
2023-02-08T05:43:22.314Z,1033.27
2023-02-08T05:44:22.320Z,1033.23
2023-02-08T05:45:22.337Z,1033.25
2023-02-08T05:46:22.394Z,1033.19
2023-02-08T05:47:22.359Z,1033.24
2023-02-08T05:48:22.369Z,1033.23
2023-02-08T05:49:22.387Z,1033.23
2023-02-08T05:50:22.403Z,1033.27
2023-02-08T05:51:22.410Z,1033.25
2023-02-08T05:52:22.421Z,1033.20
2023-02-08T05:53:22.433Z,1033.24
2023-02-08T05:54:22.469Z,1033.24
2023-02-08T05:55:22.460Z,1033.25
2023-02-08T05:56:22.484Z,1033.27
2023-02-08T05:57:22.490Z,1033.25
2023-02-08T05:58:22.496Z,1033.25
2023-02-08T05:59:22.510Z,1033.27
2023-02-08T06:00:22.569Z,1033.29
2023-02-08T06:01:22.531Z,1033.31
2023-02-08T06:02:22.558Z,1033.31
2023-02-08T06:03:22.612Z,1033.32
2023-02-08T06:04:22.710Z,1033.32
2023-02-08T06:05:22.596Z,1033.30
2023-02-08T06:06:22.602Z,1033.35
2023-02-08T06:07:22.612Z,1033.35
2023-02-08T06:08:22.637Z,1033.38
2023-02-08T06:09:22.633Z,1033.33
2023-02-08T06:10:22.655Z,1033.36
2023-02-08T06:11:22.692Z,1033.37
2023-02-08T06:12:22.676Z,1033.33
2023-02-08T06:13:22.684Z,1033.37
2023-02-08T06:14:22.698Z,1033.35
2023-02-08T06:15:22.710Z,1033.34
2023-02-08T06:16:22.761Z,1033.32
2023-02-08T06:17:22.735Z,1033.33
2023-02-08T06:18:22.747Z,1033.35
2023-02-08T06:19:22.766Z,1033.31
2023-02-08T06:20:22.787Z,1033.31
2023-02-08T06:21:24.503Z,1033.30
2023-02-08T06:22:22.813Z,1033.30
2023-02-08T06:23:22.827Z,1033.29
2023-02-08T06:24:22.822Z,1033.26
2023-02-08T06:25:22.835Z,1033.23
2023-02-08T06:26:22.854Z,1033.27
2023-02-08T06:27:22.861Z,1033.22
2023-02-08T06:28:22.933Z,1033.20
2023-02-08T06:29:22.886Z,1033.21
2023-02-08T06:30:22.904Z,1033.19
2023-02-08T06:31:22.960Z,1033.21
2023-02-08T06:32:22.956Z,1033.18
2023-02-08T06:33:22.944Z,1033.17
2023-02-08T06:34:22.948Z,1033.15
2023-02-08T06:35:22.960Z,1033.13
2023-02-08T06:36:22.974Z,1033.13
2023-02-08T06:37:22.991Z,1033.11
2023-02-08T06:38:23.005Z,1033.14
2023-02-08T06:39:23.036Z,1033.12
2023-02-08T06:40:23.021Z,1033.13
2023-02-08T06:41:23.047Z,1033.17
2023-02-08T06:42:23.048Z,1033.19
2023-02-08T06:43:23.067Z,1033.23
2023-02-08T06:44:23.075Z,1033.21
2023-02-08T06:45:23.089Z,1033.20
2023-02-08T06:46:23.102Z,1033.21
2023-02-08T06:47:23.114Z,1033.21
2023-02-08T06:48:23.125Z,1033.23
2023-02-08T06:49:23.139Z,1033.23
2023-02-08T06:50:24.188Z,1033.21
2023-02-08T06:51:23.164Z,1033.19
2023-02-08T06:52:23.185Z,1033.21
2023-02-08T06:53:23.186Z,1033.21
2023-02-08T06:54:23.200Z,1033.21
2023-02-08T06:55:23.210Z,1033.20
2023-02-08T06:56:23.241Z,1033.21
2023-02-08T06:57:23.236Z,1033.21
2023-02-08T06:58:23.249Z,1033.22
2023-02-08T06:59:23.263Z,1033.24
2023-02-08T07:00:23.275Z,1033.27
2023-02-08T07:01:23.369Z,1033.27
2023-02-08T07:02:23.354Z,1033.31
2023-02-08T07:03:23.311Z,1033.34
2023-02-08T07:04:23.326Z,1033.33
2023-02-08T07:05:23.338Z,1033.27
2023-02-08T07:06:23.354Z,1033.28
2023-02-08T07:07:23.363Z,1033.27
2023-02-08T07:08:23.377Z,1033.27
2023-02-08T07:09:23.384Z,1033.29
2023-02-08T07:10:23.402Z,1033.28
2023-02-08T07:11:23.414Z,1033.29
2023-02-08T07:12:23.426Z,1033.26
2023-02-08T07:13:23.447Z,1033.25
2023-02-08T07:14:23.451Z,1033.27
2023-02-08T07:15:23.462Z,1033.28
2023-02-08T07:16:23.498Z,1033.30
2023-02-08T07:17:23.489Z,1033.27
2023-02-08T07:18:23.507Z,1033.28
2023-02-08T07:19:23.511Z,1033.28
2023-02-08T07:20:23.527Z,1033.28
2023-02-08T07:21:23.542Z,1033.25
2023-02-08T07:22:23.552Z,1033.24
2023-02-08T07:23:23.561Z,1033.24
2023-02-08T07:24:23.587Z,1033.24
2023-02-08T07:25:23.587Z,1033.25
2023-02-08T07:26:23.608Z,1033.26
2023-02-08T07:27:25.977Z,1033.22
2023-02-08T07:28:23.666Z,1033.25
2023-02-08T07:29:23.639Z,1033.25
2023-02-08T07:30:23.654Z,1033.17
2023-02-08T07:31:23.695Z,1033.19
2023-02-08T07:32:23.683Z,1033.18
2023-02-08T07:33:23.702Z,1033.19
2023-02-08T07:34:23.707Z,1033.22
2023-02-08T07:35:23.712Z,1033.19
2023-02-08T07:36:23.737Z,1033.20
2023-02-08T07:37:23.748Z,1033.22
2023-02-08T07:38:23.755Z,1033.24
2023-02-08T07:39:23.763Z,1033.22
2023-02-08T07:40:23.786Z,1033.24
2023-02-08T07:41:23.799Z,1033.28
2023-02-08T07:42:23.809Z,1033.27
2023-02-08T07:43:25.288Z,1033.26
2023-02-08T07:44:23.836Z,1033.27
2023-02-08T07:45:23.862Z,1033.27
2023-02-08T07:46:23.906Z,1033.29
2023-02-08T07:47:23.871Z,1033.27
2023-02-08T07:48:23.890Z,1033.29
2023-02-08T07:49:23.899Z,1033.28
2023-02-08T07:50:23.908Z,1033.29
2023-02-08T07:51:23.924Z,1033.27
2023-02-08T07:52:23.936Z,1033.25
2023-02-08T07:53:23.955Z,1033.26
2023-02-08T07:54:23.965Z,1033.25
2023-02-08T07:55:23.979Z,1033.21
2023-02-08T07:56:23.990Z,1033.16
2023-02-08T07:57:24.004Z,1033.16
2023-02-08T07:58:24.017Z,1033.17
2023-02-08T07:59:24.025Z,1033.12
2023-02-08T08:00:24.060Z,1033.09
2023-02-08T08:01:24.101Z,1033.09
2023-02-08T08:02:24.068Z,1033.10
2023-02-08T08:03:24.080Z,1033.10
2023-02-08T08:04:24.223Z,1033.05
2023-02-08T08:05:24.108Z,1033.07
2023-02-08T08:06:24.163Z,1033.05
2023-02-08T08:07:24.134Z,1033.03
2023-02-08T08:08:24.151Z,1033.02
2023-02-08T08:09:24.162Z,1032.96
2023-02-08T08:10:24.177Z,1033.00
2023-02-08T08:11:24.200Z,1032.98
2023-02-08T08:12:24.199Z,1033.01
2023-02-08T08:13:24.215Z,1033.03
2023-02-08T08:14:24.231Z,1033.02
2023-02-08T08:15:24.248Z,1033.06
2023-02-08T08:16:24.344Z,1033.07
2023-02-08T08:17:24.268Z,1033.10
2023-02-08T08:18:24.309Z,1033.07
2023-02-08T08:19:24.297Z,1033.10
2023-02-08T08:20:24.319Z,1033.05
2023-02-08T08:21:24.320Z,1033.05
2023-02-08T08:22:24.341Z,1033.04
2023-02-08T08:23:24.348Z,1033.00
2023-02-08T08:24:24.368Z,1032.99
2023-02-08T08:25:24.386Z,1032.98
2023-02-08T08:26:24.402Z,1033.01
2023-02-08T08:27:24.401Z,1032.98
2023-02-08T08:28:24.553Z,1032.99
2023-02-08T08:29:24.439Z,1033.01
2023-02-08T08:30:24.551Z,1033.02
2023-02-08T08:31:24.566Z,1032.98
2023-02-08T08:32:24.483Z,1033.00
2023-02-08T08:33:24.499Z,1033.02
2023-02-08T08:34:24.507Z,1033.01
2023-02-08T08:35:24.530Z,1032.99
2023-02-08T08:36:24.538Z,1033.02
2023-02-08T08:37:24.547Z,1033.01
2023-02-08T08:38:24.560Z,1033.00
2023-02-08T08:39:24.580Z,1033.00
2023-02-08T08:40:25.299Z,1032.96
2023-02-08T08:41:24.604Z,1032.95
2023-02-08T08:42:24.621Z,1032.94
2023-02-08T08:43:24.630Z,1032.97
2023-02-08T08:44:24.647Z,1032.94
2023-02-08T08:45:24.675Z,1032.93
2023-02-08T08:46:24.736Z,1032.93
2023-02-08T08:47:24.693Z,1032.93
2023-02-08T08:48:24.707Z,1032.94
2023-02-08T08:49:24.722Z,1032.97
2023-02-08T08:50:24.735Z,1032.95
2023-02-08T08:51:24.752Z,1032.91
2023-02-08T08:52:24.767Z,1032.87
2023-02-08T08:53:24.775Z,1032.90
2023-02-08T08:54:24.795Z,1032.86
2023-02-08T08:55:24.802Z,1032.91
2023-02-08T08:56:24.834Z,1032.91
2023-02-08T08:57:24.838Z,1032.91
2023-02-08T08:58:24.851Z,1032.93
2023-02-08T08:59:24.866Z,1032.92
2023-02-08T09:00:24.884Z,1032.91
2023-02-08T09:01:24.946Z,1032.95
2023-02-08T09:02:24.921Z,1032.92
2023-02-08T09:03:24.957Z,1032.91
2023-02-08T09:04:24.945Z,1032.93
2023-02-08T09:05:24.949Z,1032.93
2023-02-08T09:06:24.971Z,1032.84
2023-02-08T09:07:24.980Z,1032.87
2023-02-08T09:08:25.000Z,1032.79
2023-02-08T09:09:25.012Z,1032.79
2023-02-08T09:10:25.020Z,1032.81
2023-02-08T09:11:25.043Z,1032.81
2023-02-08T09:12:25.055Z,1032.85
2023-02-08T09:13:25.073Z,1032.87
2023-02-08T09:14:25.085Z,1032.89
2023-02-08T09:15:25.102Z,1032.86
2023-02-08T09:16:25.191Z,1032.91
2023-02-08T09:17:25.129Z,1032.93
2023-02-08T09:18:25.148Z,1032.93
2023-02-08T09:19:25.159Z,1032.92
2023-02-08T09:20:25.172Z,1032.92
2023-02-08T09:21:25.196Z,1032.93
2023-02-08T09:22:25.210Z,1032.93
2023-02-08T09:23:25.264Z,1032.94
2023-02-08T09:24:25.278Z,1032.90
2023-02-08T09:25:25.250Z,1032.89
2023-02-08T09:26:25.269Z,1032.88
2023-02-08T09:27:25.283Z,1032.89
2023-02-08T09:28:25.331Z,1032.89
2023-02-08T09:29:25.308Z,1032.87
2023-02-08T09:30:25.327Z,1032.90
2023-02-08T09:31:25.515Z,1032.98
2023-02-08T09:32:25.355Z,1032.97
2023-02-08T09:33:25.373Z,1032.95
2023-02-08T09:34:25.392Z,1033.02
2023-02-08T09:35:25.409Z,1032.95
2023-02-08T09:36:25.427Z,1032.98
2023-02-08T09:37:25.441Z,1032.94
2023-02-08T09:38:25.462Z,1032.93
2023-02-08T09:39:25.464Z,1032.97
2023-02-08T09:40:25.494Z,1032.91
2023-02-08T09:41:25.504Z,1032.93
2023-02-08T09:42:25.519Z,1032.88
2023-02-08T09:43:25.536Z,1032.88
2023-02-08T09:44:25.550Z,1032.89
2023-02-08T09:45:25.568Z,1032.86
2023-02-08T09:46:25.598Z,1032.85
2023-02-08T09:47:25.605Z,1032.85
2023-02-08T09:48:25.614Z,1032.81
2023-02-08T09:49:25.635Z,1032.85
2023-02-08T09:50:25.652Z,1032.84
2023-02-08T09:51:25.662Z,1032.84
2023-02-08T09:52:25.685Z,1032.83
2023-02-08T09:53:25.701Z,1032.85
2023-02-08T09:54:25.718Z,1032.90
2023-02-08T09:55:25.729Z,1032.92
2023-02-08T09:56:25.757Z,1032.94
2023-02-08T09:57:25.757Z,1032.94
2023-02-08T09:58:25.779Z,1032.96
2023-02-08T09:59:25.794Z,1033.00
2023-02-08T10:00:25.824Z,1033.00
2023-02-08T10:01:25.830Z,1032.98
2023-02-08T10:02:25.844Z,1032.94
2023-02-08T10:03:25.889Z,1032.94
2023-02-08T10:04:25.880Z,1032.93
2023-02-08T10:05:25.890Z,1032.91
2023-02-08T10:06:25.909Z,1032.91
2023-02-08T10:07:25.936Z,1032.87
2023-02-08T10:08:34.705Z,1032.82
2023-02-08T10:09:25.959Z,1032.81
2023-02-08T10:10:25.986Z,1032.84
2023-02-08T10:11:26.001Z,1032.83
2023-02-08T10:12:26.017Z,1032.82
2023-02-08T10:13:40.801Z,1032.82
2023-02-08T10:14:26.050Z,1032.82
2023-02-08T10:15:26.064Z,1032.75
2023-02-08T10:16:26.104Z,1032.80
2023-02-08T10:17:26.093Z,1032.82
2023-02-08T10:18:26.212Z,1032.76
2023-02-08T10:19:26.128Z,1032.77
2023-02-08T10:20:26.141Z,1032.76
2023-02-08T10:21:26.157Z,1032.79
2023-02-08T10:22:26.171Z,1032.79
2023-02-08T10:23:26.199Z,1032.78
2023-02-08T10:24:26.199Z,1032.82
2023-02-08T10:25:26.221Z,1032.82
2023-02-08T10:26:26.240Z,1032.82
2023-02-08T10:27:26.253Z,1032.89
2023-02-08T10:28:26.381Z,1032.89
2023-02-08T10:29:26.297Z,1032.89
2023-02-08T10:30:26.390Z,1032.91
2023-02-08T10:31:26.360Z,1032.94
2023-02-08T10:32:26.340Z,1032.94
2023-02-08T10:33:26.392Z,1032.95
2023-02-08T10:34:26.379Z,1032.93
2023-02-08T10:35:26.393Z,1032.92
2023-02-08T10:36:26.405Z,1032.95
2023-02-08T10:37:26.426Z,1032.95
2023-02-08T10:38:28.037Z,1032.97
2023-02-08T10:39:26.462Z,1032.96
2023-02-08T10:40:26.486Z,1032.96
2023-02-08T10:41:26.498Z,1032.94
2023-02-08T10:42:26.506Z,1032.98
2023-02-08T10:43:26.524Z,1032.91
2023-02-08T10:44:26.545Z,1032.93
2023-02-08T10:45:26.560Z,1032.88
2023-02-08T10:46:26.576Z,1032.82
2023-02-08T10:47:26.590Z,1032.83
2023-02-08T10:48:26.608Z,1032.80
2023-02-08T10:49:26.627Z,1032.73
2023-02-08T10:50:28.627Z,1032.68
2023-02-08T10:51:26.678Z,1032.75
2023-02-08T10:52:26.676Z,1032.73
2023-02-08T10:53:26.715Z,1032.75
2023-02-08T10:54:26.716Z,1032.75
2023-02-08T10:55:26.728Z,1032.72
2023-02-08T10:56:26.752Z,1032.70
2023-02-08T10:57:26.764Z,1032.71
2023-02-08T10:58:26.791Z,1032.67
2023-02-08T10:59:26.798Z,1032.67
2023-02-08T11:00:26.850Z,1032.68
2023-02-08T11:01:26.884Z,1032.66
2023-02-08T11:02:26.870Z,1032.68
2023-02-08T11:03:26.869Z,1032.69
2023-02-08T11:04:26.952Z,1032.66
2023-02-08T11:05:26.902Z,1032.66
2023-02-08T11:06:26.922Z,1032.65
2023-02-08T11:07:26.941Z,1032.64
2023-02-08T11:08:26.952Z,1032.62
2023-02-08T11:09:26.979Z,1032.60
2023-02-08T11:10:26.987Z,1032.55
2023-02-08T11:11:27.023Z,1032.51
2023-02-08T11:12:27.025Z,1032.51
2023-02-08T11:13:27.044Z,1032.51
2023-02-08T11:14:35.093Z,1032.49
2023-02-08T11:15:27.089Z,1032.45
2023-02-08T11:16:27.176Z,1032.43
2023-02-08T11:17:27.119Z,1032.40
2023-02-08T11:18:27.134Z,1032.41
2023-02-08T11:19:27.154Z,1032.43
2023-02-08T11:20:27.169Z,1032.42
2023-02-08T11:21:27.202Z,1032.42
2023-02-08T11:22:27.205Z,1032.40
2023-02-08T11:23:27.224Z,1032.36
2023-02-08T11:24:27.255Z,1032.36
2023-02-08T11:25:27.264Z,1032.34
2023-02-08T11:26:27.275Z,1032.39
2023-02-08T11:27:27.303Z,1032.30
2023-02-08T11:28:27.368Z,1032.30
2023-02-08T11:29:27.353Z,1032.29
2023-02-08T11:30:27.388Z,1032.28
2023-02-08T11:31:27.412Z,1032.30
2023-02-08T11:32:27.384Z,1032.29
2023-02-08T11:33:27.427Z,1032.30
2023-02-08T11:34:27.424Z,1032.29
2023-02-08T11:35:27.449Z,1032.33
2023-02-08T11:36:27.464Z,1032.28
2023-02-08T11:37:27.478Z,1032.27
2023-02-08T11:38:27.543Z,1032.24
2023-02-08T11:39:27.517Z,1032.30
2023-02-08T11:40:27.533Z,1032.27
2023-02-08T11:41:27.554Z,1032.26
2023-02-08T11:42:27.565Z,1032.24
2023-02-08T11:43:27.592Z,1032.25
2023-02-08T11:44:27.605Z,1032.22
2023-02-08T11:45:27.624Z,1032.22
2023-02-08T11:46:27.639Z,1032.21
2023-02-08T11:47:27.660Z,1032.23
2023-02-08T11:48:27.678Z,1032.21
2023-02-08T11:49:27.695Z,1032.18
2023-02-08T11:50:27.724Z,1032.13
2023-02-08T11:51:27.740Z,1032.14
2023-02-08T11:52:27.771Z,1032.12
2023-02-08T11:53:27.812Z,1032.10
2023-02-08T11:54:27.788Z,1032.11
2023-02-08T11:55:27.813Z,1032.05
2023-02-08T11:56:27.827Z,1032.09
2023-02-08T11:57:27.925Z,1032.03
2023-02-08T11:58:27.867Z,1032.01
2023-02-08T11:59:27.888Z,1032.03
2023-02-08T12:00:27.905Z,1031.99
2023-02-08T12:01:27.914Z,1031.99
2023-02-08T12:02:27.972Z,1032.01
2023-02-08T12:03:27.996Z,1031.99
2023-02-08T12:04:27.975Z,1032.01
2023-02-08T12:05:27.992Z,1031.99